Time;durP1;ratioP1;P1;durP2;ratioP2;P2;SDS_P1;SDS_P2;PMS_P1;PMS_P2;Temp;Humidity;BMP_temperature;BMP_pressure;BME280_temperature;BME280_humidity;BME280_pressure;Samples;Min_cycle;Max_cycle;Signal;HPM_P1;HPM_P2
2021/07/14 00:00:59;;;;;;;7.13;6.43;;;16.90;99.90;;;;;;5017273;28;20239;-55
2021/07/14 00:03:25;;;;;;;7.47;5.87;;;16.90;99.90;;;;;;5017414;28;20212;-60
2021/07/14 00:05:51;;;;;;;7.83;5.87;;;16.90;99.90;;;;;;5015851;28;20584;-64
2021/07/14 00:08:16;;;;;;;8.47;6.10;;;17.10;99.90;;;;;;5016763;28;20218;-63
2021/07/14 00:10:42;;;;;;;7.00;6.27;;;17.10;99.90;;;;;;5015516;28;20573;-64
2021/07/14 00:23:54;;;;;;;7.57;6.37;;;17.10;99.90;;;;;;5016045;28;20252;-63
2021/07/14 00:26:20;;;;;;;8.10;6.50;;;17.10;99.90;;;;;;5016207;28;20257;-63
2021/07/14 00:28:51;;;;;;;8.30;6.20;;;17.30;99.90;;;;;;5015721;28;20581;-61
2021/07/14 00:31:18;;;;;;;7.57;6.77;;;17.40;99.90;;;;;;5015312;28;20172;-63
2021/07/14 00:33:45;;;;;;;9.30;6.93;;;17.50;99.90;;;;;;5016144;28;20178;-58
2021/07/14 00:36:11;;;;;;;7.47;6.77;;;17.40;99.90;;;;;;5015304;28;20177;-57
2021/07/14 00:38:37;;;;;;;7.30;6.60;;;17.50;99.90;;;;;;5015188;28;20244;-57
2021/07/14 00:41:04;;;;;;;7.03;6.33;;;17.60;99.90;;;;;;5015669;28;20193;-63
2021/07/14 00:43:30;;;;;;;8.70;6.93;;;17.70;99.90;;;;;;5014036;28;20626;-59
2021/07/14 00:46:25;;;;;;;8.47;6.43;;;17.80;99.90;;;;;;5015488;28;20176;-63
2021/07/14 00:48:52;;;;;;;6.93;6.20;;;17.90;99.90;;;;;;5014597;28;20260;-63
2021/07/14 00:51:18;;;;;;;9.43;6.83;;;17.80;99.90;;;;;;5015230;28;20207;-62
2021/07/14 00:53:44;;;;;;;7.50;6.60;;;17.70;99.90;;;;;;5015559;28;20172;-57
2021/07/14 00:56:10;;;;;;;8.03;7.23;;;17.70;99.90;;;;;;5015008;28;20654;-57
2021/07/14 00:58:35;;;;;;;8.23;6.93;;;17.60;99.90;;;;;;5015222;28;20211;-60
2021/07/14 01:01:03;;;;;;;7.40;6.70;;;17.50;99.90;;;;;;5015124;28;20175;-59
2021/07/14 01:03:31;;;;;;;8.73;7.27;;;17.40;99.90;;;;;;5015337;28;20523;-63
2021/07/14 01:06:00;;;;;;;7.27;6.03;;;17.40;99.90;;;;;;5014871;28;20319;-55
2021/07/14 01:08:37;;;;;;;7.10;6.40;;;17.50;99.90;;;;;;4978637;28;1038435;-63
2021/07/14 01:11:17;;;;;;;10.83;8.20;;;17.40;99.90;;;;;;5015557;28;20246;-58
2021/07/14 01:13:52;;;;;;;9.43;8.53;;;17.40;99.90;;;;;;5015996;28;20624;-56
2021/07/14 01:16:22;;;;;;;7.50;6.80;;;17.30;99.90;;;;;;5016196;28;20178;-63
2021/07/14 01:18:50;;;;;;;7.33;6.63;;;17.40;99.90;;;;;;5015563;28;20228;-64
2021/07/14 01:21:20;;;;;;;6.80;5.37;;;17.40;99.90;;;;;;5015488;28;20277;-55
2021/07/14 01:24:08;;;;;;;7.20;6.30;;;17.40;99.90;;;;;;5015569;28;20158;-63
2021/07/14 01:27:06;;;;;;;5.43;4.93;;;17.40;99.90;;;;;;5015972;28;20155;-57
2021/07/14 01:29:34;;;;;;;6.60;5.90;;;17.60;99.90;;;;;;5015595;28;20506;-56
2021/07/14 01:32:02;;;;;;;5.70;5.10;;;17.60;99.90;;;;;;5015718;28;20227;-63
2021/07/14 01:34:31;;;;;;;9.37;8.33;;;17.80;99.90;;;;;;5015364;28;20185;-63
2021/07/14 01:36:59;;;;;;;7.93;7.10;;;17.70;99.90;;;;;;5015193;28;20612;-64
2021/07/14 01:39:27;;;;;;;6.33;5.73;;;17.70;99.90;;;;;;5014324;28;20200;-57
2021/07/14 01:41:53;;;;;;;8.43;6.70;;;17.70;99.90;;;;;;5015335;28;20174;-58
2021/07/14 01:44:25;;;;;;;6.93;6.13;;;17.80;99.90;;;;;;5015310;28;20169;-63
2021/07/14 01:46:57;;;;;;;11.93;9.67;;;17.90;99.90;;;;;;5015553;28;20223;-63
2021/07/14 01:49:23;;;;;;;12.00;9.10;;;17.80;99.90;;;;;;5015399;28;20212;-63
2021/07/14 01:51:55;;;;;;;10.67;7.43;;;17.70;99.90;;;;;;5014660;28;20183;-60
2021/07/14 01:54:24;;;;;;;7.23;6.47;;;17.70;99.90;;;;;;5015628;28;20513;-61
2021/07/14 01:56:51;;;;;;;10.93;8.10;;;17.60;99.90;;;;;;5014794;28;20171;-57
2021/07/14 01:59:18;;;;;;;7.50;6.57;;;17.70;99.90;;;;;;5015093;28;20295;-58
2021/07/14 02:01:44;;;;;;;7.80;6.53;;;17.70;99.90;;;;;;5014809;28;20168;-64
2021/07/14 02:04:31;;;;;;;8.57;6.30;;;17.70;99.90;;;;;;5014858;28;20260;-64
2021/07/14 02:07:06;;;;;;;6.53;5.93;;;17.70;99.90;;;;;;5015505;28;20242;-58
2021/07/14 02:09:37;;;;;;;8.57;6.73;;;17.50;99.90;;;;;;5014725;28;20196;-60
2021/07/14 02:12:07;;;;;;;7.33;6.63;;;17.50;99.90;;;;;;5014746;28;20212;-58
2021/07/14 02:14:38;;;;;;;10.60;7.17;;;17.40;99.90;;;;;;5014604;28;20178;-63
2021/07/14 02:17:08;;;;;;;10.00;7.37;;;17.30;99.90;;;;;;5014833;28;20222;-61
2021/07/14 02:19:36;;;;;;;8.07;7.23;;;17.40;99.90;;;;;;5014463;28;20664;-60
2021/07/14 02:22:03;;;;;;;9.00;8.20;;;17.40;99.90;;;;;;5014721;28;20170;-62
2021/07/14 02:24:31;;;;;;;8.80;8.00;;;17.40;99.90;;;;;;5015030;28;20199;-60
2021/07/14 02:26:57;;;;;;;9.97;8.70;;;17.30;99.90;;;;;;5014333;28;20757;-60
2021/07/14 02:29:24;;;;;;;9.57;8.67;;;17.30;99.90;;;;;;5014899;28;20169;-63
2021/07/14 02:31:49;;;;;;;9.33;8.43;;;17.30;99.90;;;;;;5014752;28;20177;-64
2021/07/14 02:34:15;;;;;;;9.30;8.50;;;17.40;99.90;;;;;;5014496;28;20518;-64
2021/07/14 02:36:43;;;;;;;9.63;8.63;;;17.50;99.90;;;;;;5014574;28;20640;-64
2021/07/14 02:39:10;;;;;;;9.13;8.23;;;17.60;99.90;;;;;;5014374;28;20297;-64
2021/07/14 02:41:49;;;;;;;10.43;9.53;;;17.70;99.90;;;;;;5014047;28;20179;-64
2021/07/14 02:44:19;;;;;;;9.33;8.43;;;17.80;99.90;;;;;;5014645;28;20151;-61
2021/07/14 02:46:48;;;;;;;9.13;8.33;;;17.80;99.90;;;;;;5014843;28;20183;-57
2021/07/14 02:49:20;;;;;;;11.30;10.10;;;17.80;99.90;;;;;;5014300;28;20181;-63
2021/07/14 02:51:50;;;;;;;10.23;9.23;;;17.90;99.90;;;;;;5014171;28;20160;-62
2021/07/14 02:54:20;;;;;;;11.47;10.47;;;17.90;99.90;;;;;;5014291;28;20185;-61
2021/07/14 02:56:54;;;;;;;10.67;9.63;;;18.10;99.90;;;;;;5014112;28;20234;-60
2021/07/14 02:59:26;;;;;;;11.40;10.40;;;18.10;99.90;;;;;;5014452;28;20185;-61
2021/07/14 03:01:54;;;;;;;11.73;10.60;;;18.20;99.90;;;;;;5013866;28;20169;-60
2021/07/14 03:04:20;;;;;;;12.97;11.70;;;18.20;99.90;;;;;;5014070;28;20170;-64
2021/07/14 03:06:47;;;;;;;11.43;10.43;;;18.10;99.90;;;;;;5014125;28;20265;-59
2021/07/14 03:09:13;;;;;;;12.33;11.23;;;17.90;99.90;;;;;;5013636;28;20190;-57
2021/07/14 03:11:41;;;;;;;11.93;10.87;;;17.80;99.90;;;;;;5014156;28;20182;-63
2021/07/14 03:14:10;;;;;;;12.93;11.83;;;17.70;99.90;;;;;;5013796;28;20186;-60
2021/07/14 03:16:36;;;;;;;12.60;11.47;;;17.60;99.90;;;;;;5013970;28;20205;-64
2021/07/14 03:19:03;;;;;;;12.97;11.77;;;17.50;99.90;;;;;;5013820;28;20276;-65
2021/07/14 03:21:31;;;;;;;14.03;12.57;;;17.40;99.90;;;;;;5013653;28;20194;-63
2021/07/14 03:24:00;;;;;;;13.10;11.77;;;17.30;99.90;;;;;;5014360;28;20248;-60
2021/07/14 03:26:27;;;;;;;12.73;11.63;;;17.20;99.90;;;;;;5013815;28;20246;-64
2021/07/14 03:28:53;;;;;;;13.97;12.67;;;17.30;99.90;;;;;;5013733;28;20201;-64
2021/07/14 03:31:20;;;;;;;14.27;12.97;;;17.40;99.90;;;;;;5028850;28;20209;-63
2021/07/14 03:33:45;;;;;;;16.27;14.60;;;17.40;99.90;;;;;;5014149;28;20165;-60
2021/07/14 03:36:13;;;;;;;18.77;16.87;;;17.40;99.90;;;;;;5013698;28;20227;-60
2021/07/14 03:38:39;;;;;;;15.70;14.20;;;17.30;99.90;;;;;;5012203;28;20224;-63
2021/07/14 03:41:05;;;;;;;14.80;13.37;;;17.20;99.90;;;;;;5013928;28;20169;-59
2021/07/14 03:43:32;;;;;;;15.60;14.20;;;17.10;99.90;;;;;;5013605;28;20528;-64
2021/07/14 03:46:00;;;;;;;14.10;12.80;;;17.20;99.90;;;;;;5014057;28;20180;-63
2021/07/14 03:48:30;;;;;;;13.33;12.03;;;17.40;99.90;;;;;;5013940;28;20238;-61
2021/07/14 03:50:57;;;;;;;13.47;12.27;;;17.60;99.90;;;;;;5014076;28;20165;-63
2021/07/14 03:53:23;;;;;;;14.27;12.87;;;17.70;99.90;;;;;;5013562;28;20223;-63
2021/07/14 03:55:51;;;;;;;13.87;12.57;;;17.80;99.90;;;;;;5013545;28;20165;-58
2021/07/14 03:58:18;;;;;;;13.90;12.53;;;17.80;99.90;;;;;;5013715;28;20531;-63
2021/07/14 04:00:47;;;;;;;14.93;13.53;;;17.70;99.90;;;;;;5013463;28;20205;-59
2021/07/14 04:03:12;;;;;;;15.93;14.53;;;17.70;99.90;;;;;;5014930;28;20517;-63
2021/07/14 04:05:44;;;;;;;13.40;12.20;;;17.80;99.90;;;;;;5017175;28;20646;-61
2021/07/14 04:08:15;;;;;;;13.10;11.80;;;17.80;99.90;;;;;;5016963;28;20208;-63
2021/07/14 04:10:41;;;;;;;13.70;12.43;;;17.70;99.90;;;;;;5017231;28;20240;-61
2021/07/14 04:13:06;;;;;;;13.13;11.93;;;17.70;99.90;;;;;;5022310;28;20181;-59
2021/07/14 04:15:33;;;;;;;14.77;13.33;;;;;;;;;;5016944;28;20174;-57
2021/07/14 04:17:58;;;;;;;10.90;10.00;;;17.60;99.90;;;;;;5016665;28;20747;-59
2021/07/14 04:20:24;;;;;;;10.63;9.60;;;17.60;99.90;;;;;;5016671;28;20282;-63
2021/07/14 04:22:50;;;;;;;9.93;9.00;;;17.50;99.90;;;;;;5016624;28;20500;-64
2021/07/14 04:25:15;;;;;;;9.00;8.10;;;17.50;99.90;;;;;;5016969;28;20172;-62
2021/07/14 04:27:41;;;;;;;8.70;7.90;;;17.30;99.90;;;;;;5016658;28;20194;-56
2021/07/14 04:30:07;;;;;;;10.40;9.50;;;17.20;99.90;;;;;;5016632;28;20183;-58
2021/07/14 04:32:32;;;;;;;9.87;9.03;;;17.20;99.90;;;;;;5016984;28;20233;-63
2021/07/14 04:34:58;;;;;;;9.47;8.50;;;17.30;99.90;;;;;;5016743;28;20185;-59
2021/07/14 04:37:23;;;;;;;9.40;8.50;;;17.30;99.90;;;;;;5016335;28;20255;-64
2021/07/14 04:39:49;;;;;;;8.10;7.40;;;17.50;99.90;;;;;;5016538;28;20208;-63
2021/07/14 04:42:15;;;;;;;10.30;9.30;;;17.70;99.90;;;;;;5016265;28;20182;-60
2021/07/14 04:44:51;;;;;;;9.47;8.57;;;17.90;99.90;;;;;;5016350;28;20220;-63
2021/07/14 04:47:17;;;;;;;9.77;8.87;;;17.90;99.90;;;;;;5016501;28;20193;-61
2021/07/14 04:49:42;;;;;;;10.20;9.20;;;17.90;99.90;;;;;;5017140;28;20261;-55
2021/07/14 04:52:09;;;;;;;10.00;9.10;;;17.80;99.90;;;;;;5016058;28;20573;-62
2021/07/14 04:54:35;;;;;;;11.20;10.10;;;17.60;99.90;;;;;;5016177;28;20645;-63
2021/07/14 04:57:01;;;;;;;10.10;9.20;;;17.40;99.90;;;;;;5016017;28;20202;-60
2021/07/14 04:59:26;;;;;;;10.13;9.20;;;17.40;99.90;;;;;;5016212;28;20213;-60
2021/07/14 05:01:52;;;;;;;10.10;9.20;;;17.20;99.90;;;;;;5031944;28;20258;-63
2021/07/14 05:04:17;;;;;;;10.23;9.23;;;17.20;99.90;;;;;;5035901;28;20177;-59
2021/07/14 05:06:43;;;;;;;9.97;8.67;;;17.30;99.90;;;;;;5034551;28;20173;-60
2021/07/14 05:09:09;;;;;;;9.87;8.97;;;17.50;99.90;;;;;;5035514;28;20205;-64
2021/07/14 05:11:34;;;;;;;10.23;9.23;;;17.40;99.90;;;;;;5035615;28;20172;-64
2021/07/14 05:14:00;;;;;;;10.13;9.30;;;17.30;99.90;;;;;;5034574;28;20178;-63
2021/07/14 05:16:25;;;;;;;10.33;9.43;;;17.20;99.90;;;;;;5036152;28;20187;-64
2021/07/14 05:18:51;;;;;;;9.73;8.83;;;17.10;99.90;;;;;;5035791;28;20244;-63
2021/07/14 05:21:16;;;;;;;9.87;8.53;;;17.20;99.90;;;;;;5035738;28;20173;-64
2021/07/14 05:23:42;;;;;;;9.73;8.90;;;17.20;99.90;;;;;;5035445;28;20165;-56
2021/07/14 05:26:07;;;;;;;9.80;8.90;;;17.20;99.90;;;;;;5035634;28;20545;-63
2021/07/14 05:28:33;;;;;;;9.90;8.90;;;17.10;99.90;;;;;;5035895;28;20254;-63
2021/07/14 05:30:59;;;;;;;9.17;8.37;;;17.10;99.90;;;;;;5035657;28;20558;-61
2021/07/14 05:33:24;;;;;;;9.63;8.83;;;17.10;99.90;;;;;;5034243;28;20189;-60
2021/07/14 05:35:54;;;;;;;10.00;9.10;;;17.10;99.90;;;;;;5035267;28;20171;-56
2021/07/14 05:38:20;;;;;;;9.53;8.73;;;17.00;99.90;;;;;;5034331;28;20199;-63
2021/07/14 05:40:47;;;;;;;9.20;8.40;;;17.90;99.90;;;;;;5034739;28;20232;-61
2021/07/14 05:43:13;;;;;;;9.77;8.87;;;17.10;99.90;;;;;;5034916;28;20667;-59
2021/07/14 05:45:39;;;;;;;9.40;8.60;;;17.20;99.90;;;;;;5034768;28;20178;-63
2021/07/14 05:48:04;;;;;;;8.97;8.17;;;17.30;99.90;;;;;;5033288;28;20719;-60
2021/07/14 05:50:30;;;;;;;8.77;7.90;;;17.40;99.90;;;;;;5034928;28;20199;-64
2021/07/14 05:52:55;;;;;;;9.80;8.73;;;17.50;99.90;;;;;;5033429;28;20192;-58
2021/07/14 05:55:21;;;;;;;9.03;8.23;;;17.70;99.90;;;;;;5035221;28;20220;-59
2021/07/14 05:57:47;;;;;;;9.20;8.40;;;17.90;99.90;;;;;;5034257;28;20226;-58
2021/07/14 06:00:13;;;;;;;9.53;8.73;;;18.10;99.90;;;;;;5035808;28;20207;-63
2021/07/14 06:02:38;;;;;;;8.13;7.43;;;18.30;99.90;;;;;;5034519;28;20579;-64
2021/07/14 06:05:05;;;;;;;8.00;7.30;;;18.40;99.90;;;;;;5034317;28;20649;-61
2021/07/14 06:07:31;;;;;;;7.90;7.20;;;18.50;99.90;;;;;;5034654;28;20192;-64
2021/07/14 06:09:57;;;;;;;7.27;6.67;;;18.50;99.90;;;;;;5033949;28;20195;-64
2021/07/14 06:12:22;;;;;;;9.20;7.10;;;18.30;99.90;;;;;;5034173;28;20308;-64
2021/07/14 06:14:49;;;;;;;8.73;7.93;;;18.00;99.90;;;;;;5034172;28;20194;-63
2021/07/14 06:17:15;;;;;;;9.10;8.20;;;17.80;99.90;;;;;;5036126;28;20215;-59
2021/07/14 06:19:41;;;;;;;9.20;8.40;;;17.70;99.90;;;;;;5034823;28;20205;-59
2021/07/14 06:22:06;;;;;;;9.43;8.60;;;17.60;99.90;;;;;;5034085;28;20194;-61
2021/07/14 06:24:32;;;;;;;9.83;7.83;;;17.50;99.90;;;;;;5034037;28;20175;-63
2021/07/14 06:26:58;;;;;;;9.17;8.13;;;17.60;99.90;;;;;;5031351;28;20549;-59
2021/07/14 06:29:23;;;;;;;9.90;8.57;;;17.80;99.90;;;;;;5034922;28;20183;-63
2021/07/14 06:31:50;;;;;;;9.70;8.77;;;17.70;99.90;;;;;;5033249;28;20680;-56
2021/07/14 06:34:16;;;;;;;9.20;8.30;;;17.70;99.90;;;;;;5035752;28;20257;-56
2021/07/14 06:36:42;;;;;;;8.80;8.00;;;17.70;99.90;;;;;;5034222;28;20209;-59
2021/07/14 06:39:07;;;;;;;8.53;7.73;;;17.80;99.90;;;;;;5030768;28;20290;-62
2021/07/14 06:41:33;;;;;;;8.50;7.70;;;17.90;99.90;;;;;;5032898;28;20180;-64
2021/07/14 06:44:02;;;;;;;8.87;8.00;;;17.90;99.90;;;;;;5033563;28;20234;-54
2021/07/14 06:46:28;;;;;;;9.33;8.43;;;17.90;99.90;;;;;;5034573;28;20221;-58
2021/07/14 06:48:54;;;;;;;8.80;8.00;;;17.80;99.90;;;;;;5035995;28;20203;-56
2021/07/14 06:51:20;;;;;;;8.57;7.87;;;17.80;99.90;;;;;;5036449;28;20695;-57
2021/07/14 06:53:47;;;;;;;8.40;7.60;;;17.80;99.90;;;;;;5035814;28;20268;-58
2021/07/14 06:56:13;;;;;;;8.53;7.73;;;17.80;99.90;;;;;;5033732;28;20544;-62
2021/07/14 06:58:40;;;;;;;8.20;7.50;;;17.90;99.90;;;;;;5034630;28;20298;-63
2021/07/14 07:01:06;;;;;;;8.90;8.00;;;17.80;99.90;;;;;;5034582;28;20264;-57
2021/07/14 07:03:33;;;;;;;7.27;6.67;;;17.90;99.90;;;;;;5033978;28;20186;-63
2021/07/14 07:05:59;;;;;;;7.87;7.20;;;18.10;99.90;;;;;;5034117;28;20188;-60
2021/07/14 07:08:25;;;;;;;8.60;7.77;;;18.40;99.90;;;;;;5034074;28;20188;-63
2021/07/14 07:10:50;;;;;;;8.27;7.57;;;18.60;99.90;;;;;;5035357;28;20183;-57
2021/07/14 07:13:16;;;;;;;8.70;7.90;;;18.40;99.90;;;;;;5034283;28;20172;-60
2021/07/14 07:15:45;;;;;;;8.43;7.73;;;18.10;99.90;;;;;;5033580;28;20176;-63
2021/07/14 07:18:11;;;;;;;8.57;7.73;;;18.00;99.90;;;;;;5033795;28;20249;-60
2021/07/14 07:20:37;;;;;;;7.80;7.00;;;17.90;99.90;;;;;;5033628;28;20218;-62
2021/07/14 07:23:03;;;;;;;7.63;7.03;;;17.90;99.90;;;;;;5033359;28;20180;-58
2021/07/14 07:25:29;;;;;;;7.27;6.63;;;17.90;99.90;;;;;;5034601;28;20180;-63
2021/07/14 07:27:58;;;;;;;6.97;6.37;;;17.90;99.90;;;;;;5034607;28;20245;-63
2021/07/14 07:30:24;;;;;;;6.33;5.83;;;18.10;99.90;;;;;;5033960;28;20187;-60
2021/07/14 07:32:49;;;;;;;7.37;6.63;;;18.40;99.90;;;;;;5033550;28;20180;-60
2021/07/14 07:35:15;;;;;;;6.90;6.20;;;18.70;99.90;;;;;;5032500;28;20199;-61
2021/07/14 07:37:41;;;;;;;7.27;6.30;;;18.80;99.90;;;;;;5034127;28;20196;-55
2021/07/14 07:40:07;;;;;;;6.33;5.83;;;19.00;99.90;;;;;;5037348;28;20203;-63
2021/07/14 07:42:33;;;;;;;6.80;6.20;;;19.10;99.90;;;;;;5037159;28;20180;-61
2021/07/14 07:44:58;;;;;;;6.33;5.77;;;19.20;99.90;;;;;;5037700;28;20234;-63
2021/07/14 07:47:24;;;;;;;5.50;5.00;;;19.30;99.90;;;;;;5037319;28;20540;-63
2021/07/14 07:49:50;;;;;;;6.57;5.60;;;19.30;99.90;;;;;;5037358;28;20230;-64
2021/07/14 07:52:18;;;;;;;5.70;5.20;;;19.40;99.90;;;;;;5036889;28;20263;-63
2021/07/14 07:54:45;;;;;;;5.80;5.30;;;19.10;99.90;;;;;;5036974;28;20671;-60
2021/07/14 07:57:11;;;;;;;6.10;5.50;;;19.20;99.90;;;;;;5037131;28;20192;-59
2021/07/14 07:59:36;;;;;;;5.67;5.10;;;19.20;99.90;;;;;;5037050;28;20532;-62
2021/07/14 08:02:04;;;;;;;5.40;4.90;;;19.10;99.90;;;;;;5037358;28;20174;-63
2021/07/14 08:04:29;;;;;;;4.90;4.50;;;19.10;99.90;;;;;;5036765;28;20648;-64
2021/07/14 08:06:55;;;;;;;5.77;5.20;;;19.20;99.90;;;;;;5036850;28;20200;-60
2021/07/14 08:09:21;;;;;;;5.87;5.23;;;19.20;99.90;;;;;;5036621;28;20192;-63
2021/07/14 08:11:46;;;;;;;5.27;4.77;;;19.00;99.90;;;;;;5037051;28;20184;-62
2021/07/14 08:14:13;;;;;;;6.87;4.83;;;18.80;99.90;;;;;;5037007;28;20180;-58
2021/07/14 08:16:38;;;;;;;5.00;4.57;;;19.10;99.90;;;;;;5036881;28;20184;-59
2021/07/14 08:19:04;;;;;;;7.00;5.13;;;19.20;99.90;;;;;;5038060;28;20211;-63
2021/07/14 08:21:30;;;;;;;4.60;4.20;;;19.10;99.90;;;;;;5036420;28;20176;-60
2021/07/14 08:23:55;;;;;;;5.27;4.77;;;19.10;99.90;;;;;;5036630;28;20255;-63
2021/07/14 08:26:21;;;;;;;4.73;4.33;;;19.20;99.90;;;;;;5037259;28;20521;-63
2021/07/14 08:28:47;;;;;;;4.77;4.37;;;19.30;99.90;;;;;;5036509;28;20567;-60
2021/07/14 08:31:13;;;;;;;5.57;4.93;;;19.30;99.90;;;;;;5036221;28;20172;-63
2021/07/14 08:33:38;;;;;;;5.37;4.90;;;19.30;99.90;;;;;;5036629;28;20218;-60
2021/07/14 08:36:04;;;;;;;5.37;4.83;;;19.20;99.90;;;;;;5036954;28;20596;-59
2021/07/14 08:38:29;;;;;;;6.63;6.03;;;19.10;99.90;;;;;;5036652;28;20564;-64
2021/07/14 08:40:58;;;;;;;6.47;5.87;;;19.10;99.90;;;;;;5050080;28;20246;-64
2021/07/14 08:43:29;;;;;;;5.67;4.60;;;19.20;99.90;;;;;;5034427;28;20259;-64
2021/07/14 08:45:56;;;;;;;4.93;4.53;;;19.20;99.90;;;;;;5049338;28;20184;-64
2021/07/14 08:48:22;;;;;;;4.10;3.80;;;19.10;99.90;;;;;;5032685;28;20200;-57
2021/07/14 08:50:52;;;;;;;3.70;3.40;;;19.00;99.90;;;;;;5034496;28;20180;-64
2021/07/14 08:53:20;;;;;;;4.90;3.83;;;18.90;99.90;;;;;;5035475;28;20176;-65
2021/07/14 08:55:47;;;;;;;4.40;4.00;;;18.90;99.90;;;;;;5035318;28;20612;-61
2021/07/14 08:58:15;;;;;;;3.60;3.30;;;19.00;99.90;;;;;;5035990;28;20766;-64
2021/07/14 09:00:41;;;;;;;3.47;2.70;;;19.00;99.90;;;;;;5034512;28;20219;-64
2021/07/14 09:03:07;;;;;;;2.70;2.50;;;18.90;99.90;;;;;;5035752;28;20177;-55
2021/07/14 09:05:34;;;;;;;3.90;3.00;;;18.90;99.90;;;;;;5035743;28;20168;-64
2021/07/14 09:08:00;;;;;;;3.20;2.90;;;18.90;99.90;;;;;;5034621;28;20188;-64
2021/07/14 09:10:25;;;;;;;3.90;3.60;;;18.90;99.90;;;;;;5035710;28;20552;-59
2021/07/14 09:12:56;;;;;;;3.73;3.43;;;19.00;99.90;;;;;;5035604;28;20202;-64
2021/07/14 09:15:26;;;;;;;4.67;4.27;;;19.10;99.90;;;;;;5035814;28;20164;-61
2021/07/14 09:17:56;;;;;;;6.03;5.40;;;19.20;99.90;;;;;;5035410;28;20254;-63
2021/07/14 09:20:25;;;;;;;5.20;4.70;;;19.30;99.90;;;;;;5035135;28;20517;-55
2021/07/14 09:23:07;;;;;;;5.80;5.30;;;19.50;99.90;;;;;;5035268;28;20658;-62
2021/07/14 09:25:48;;;;;;;5.87;5.37;;;19.70;99.90;;;;;;5036197;28;20183;-64
2021/07/14 09:28:17;;;;;;;5.47;4.97;;;19.70;99.90;;;;;;5036560;28;20203;-64
2021/07/14 09:30:44;;;;;;;4.50;4.10;;;19.70;99.90;;;;;;5036139;28;20172;-65
2021/07/14 09:33:13;;;;;;;3.77;3.47;;;19.80;99.90;;;;;;5035182;28;20728;-61
2021/07/14 09:35:46;;;;;;;4.17;3.87;;;19.90;99.90;;;;;;5035341;28;20172;-59
2021/07/14 09:38:14;;;;;;;4.70;4.30;;;20.20;99.90;;;;;;5036151;28;20200;-65
2021/07/14 09:40:41;;;;;;;4.30;4.00;;;20.30;99.90;;;;;;5035932;28;20219;-63
2021/07/14 09:43:12;;;;;;;4.37;3.87;;;20.40;99.90;;;;;;5035420;28;20566;-63
2021/07/14 09:45:45;;;;;;;3.37;3.07;;;20.50;99.90;;;;;;5037018;28;20188;-59
2021/07/14 09:48:17;;;;;;;3.28;3.00;;;20.90;99.90;;;;;;5035860;28;20633;-61
2021/07/14 09:50:58;;;;;;;3.92;3.53;;;21.30;99.90;;;;;;5035725;28;20169;-64
2021/07/14 09:53:26;;;;;;;3.83;3.47;;;21.60;99.90;;;;;;5036169;28;20505;-64
2021/07/14 09:55:56;;;;;;;3.42;3.15;;;21.40;99.90;;;;;;5035663;28;20638;-59
2021/07/14 09:58:23;;;;;;;3.88;2.90;;;21.40;99.90;;;;;;5034809;28;20204;-59
2021/07/14 10:00:55;;;;;;;4.50;2.85;;;21.40;99.90;;;;;;5034101;28;20253;-64
2021/07/14 10:03:32;;;;;;;4.15;2.70;;;21.30;99.90;;;;;;5035149;28;20588;-63
2021/07/14 10:06:06;;;;;;;3.58;2.80;;;21.10;99.90;;;;;;5034794;28;20177;-65
2021/07/14 10:08:33;;;;;;;2.80;2.60;;;21.00;99.90;;;;;;5034131;28;20224;-61
2021/07/14 10:11:10;;;;;;;3.08;2.88;;;21.20;99.90;;;;;;5034191;28;20180;-59
2021/07/14 10:13:35;;;;;;;3.42;2.90;;;21.30;99.90;;;;;;5031644;28;20182;-65
2021/07/14 10:16:03;;;;;;;2.63;2.45;;;21.50;99.90;;;;;;5033262;28;20717;-59
2021/07/14 10:18:30;;;;;;;2.58;2.38;;;21.60;99.90;;;;;;5034100;28;20656;-56
2021/07/14 10:20:56;;;;;;;2.75;2.55;;;21.80;99.90;;;;;;5034077;28;20733;-65
2021/07/14 10:23:22;;;;;;;2.33;2.10;;;22.00;99.90;;;;;;5033247;28;20217;-60
2021/07/14 10:25:48;;;;;;;1.90;1.80;;;22.10;99.90;;;;;;5034178;28;20211;-64
2021/07/14 10:28:19;;;;;;;2.40;2.20;;;22.30;99.90;;;;;;5033056;28;20203;-63
2021/07/14 10:30:48;;;;;;;2.67;2.20;;;22.60;99.90;;;;;;5034948;28;20202;-63
2021/07/14 10:33:17;;;;;;;3.80;2.30;;;22.90;99.90;;;;;;5034632;28;20179;-59
2021/07/14 10:35:44;;;;;;;2.22;2.13;;;22.90;99.90;;;;;;5033916;28;20175;-61
2021/07/14 10:38:15;;;;;;;2.30;2.10;;;22.70;99.90;;;;;;5034243;28;20604;-61
2021/07/14 10:40:42;;;;;;;2.47;2.28;;;22.70;99.90;;;;;;5034313;28;20194;-62
2021/07/14 10:43:08;;;;;;;2.40;2.20;;;22.50;99.90;;;;;;5033887;28;20176;-63
2021/07/14 10:45:34;;;;;;;3.67;2.70;;;22.20;99.90;;;;;;5034190;28;20258;-64
2021/07/14 10:48:01;;;;;;;2.35;2.25;;;22.10;99.90;;;;;;5034552;28;20199;-63
2021/07/14 10:50:27;;;;;;;2.15;2.05;;;22.30;99.90;;;;;;5034050;28;20501;-58
2021/07/14 10:52:53;;;;;;;2.45;2.25;;;22.40;99.90;;;;;;5033940;28;20168;-64
2021/07/14 10:55:24;;;;;;;2.25;2.05;;;22.70;99.90;;;;;;5034472;28;20183;-57
2021/07/14 10:57:51;;;;;;;2.22;2.13;;;22.80;99.90;;;;;;5033971;28;20196;-64
2021/07/14 11:00:17;;;;;;;2.38;2.20;;;22.90;99.90;;;;;;5034676;28;20227;-59
2021/07/14 11:02:46;;;;;;;4.05;1.77;;;23.10;99.90;;;;;;5033602;28;20172;-64
2021/07/14 11:05:14;;;;;;;3.00;2.08;;;23.30;99.90;;;;;;5033941;28;20172;-64
2021/07/14 11:07:45;;;;;;;1.40;1.30;;;23.30;99.90;;;;;;5034172;28;20253;-62
2021/07/14 11:10:35;;;;;;;1.98;1.83;;;23.20;99.90;;;;;;5032833;28;20278;-59
2021/07/14 11:13:34;;;;;;;3.38;2.28;;;22.90;99.90;;;;;;5037468;28;20156;-61
2021/07/14 11:16:24;;;;;;;2.85;2.25;;;22.60;99.90;;;;;;5038348;28;20176;-63
2021/07/14 11:19:07;;;;;;;2.20;2.00;;;22.20;99.90;;;;;;5038083;28;20192;-63
2021/07/14 11:21:44;;;;;;;2.45;2.25;;;22.20;99.90;;;;;;5037788;28;20248;-57
2021/07/14 11:24:10;;;;;;;1.92;1.83;;;22.20;99.90;;;;;;5037783;28;20192;-64
2021/07/14 11:26:36;;;;;;;2.55;2.00;;;22.20;99.90;;;;;;5038072;28;20663;-59
2021/07/14 11:29:16;;;;;;;2.00;1.70;;;22.30;99.90;;;;;;5037855;28;20199;-64
2021/07/14 11:31:42;;;;;;;2.17;1.90;;;22.30;99.90;;;;;;5036199;28;20182;-64
2021/07/14 11:34:28;;;;;;;3.50;1.90;;;22.20;99.90;;;;;;5037775;28;20176;-56
2021/07/14 11:36:54;;;;;;;1.60;1.50;;;22.10;99.90;;;;;;5037513;28;20183;-64
2021/07/14 11:39:29;;;;;;;3.83;1.70;;;22.20;99.90;;;;;;5037421;28;20561;-57
2021/07/14 11:42:15;;;;;;;1.85;1.75;;;22.30;99.90;;;;;;5037122;28;20650;-56
2021/07/14 11:44:40;;;;;;;1.70;1.60;;;22.10;99.90;;;;;;5037568;28;20191;-63
2021/07/14 11:47:32;;;;;;;3.47;2.45;;;21.90;99.90;;;;;;5037333;28;20544;-64
2021/07/14 11:49:57;;;;;;;2.15;2.05;;;21.90;99.90;;;;;;5037285;28;20295;-61
2021/07/14 11:52:45;;;;;;;3.33;2.00;;;22.30;99.90;;;;;;5036969;28;20255;-62
2021/07/14 11:55:22;;;;;;;1.50;1.40;;;21.70;99.90;;;;;;5037009;28;20203;-64
2021/07/14 11:57:52;;;;;;;2.40;1.75;;;21.70;99.90;;;;;;5037307;28;20309;-63
2021/07/14 12:00:30;;;;;;;1.55;1.45;;;21.50;99.90;;;;;;5037131;28;20192;-62
2021/07/14 12:03:03;;;;;;;2.33;1.58;;;21.40;99.90;;;;;;5037404;28;20197;-64
2021/07/14 12:05:31;;;;;;;2.05;1.70;;;21.30;99.90;;;;;;5037071;28;20178;-64
2021/07/14 12:08:11;;;;;;;1.65;1.55;;;21.30;99.90;;;;;;5031445;28;20548;-55
2021/07/14 12:10:38;;;;;;;1.92;1.80;;;21.40;99.90;;;;;;5036279;28;20198;-56
2021/07/14 12:13:06;;;;;;;1.48;1.48;;;21.40;99.90;;;;;;5035364;28;20196;-62
2021/07/14 12:15:33;;;;;;;2.08;1.65;;;21.30;99.90;;;;;;5036893;28;20179;-65
2021/07/14 12:18:09;;;;;;;1.70;1.60;;;21.50;99.90;;;;;;5035576;28;20281;-63
2021/07/14 12:20:35;;;;;;;1.90;1.80;;;21.70;99.90;;;;;;5036825;28;20207;-55
2021/07/14 12:23:00;;;;;;;2.78;2.10;;;21.80;99.90;;;;;;5035843;28;20225;-64
2021/07/14 12:25:26;;;;;;;2.03;1.63;;;21.60;99.90;;;;;;5036146;28;20177;-54
2021/07/14 12:27:52;;;;;;;1.70;1.60;;;21.30;99.90;;;;;;5036331;28;20253;-59
2021/07/14 12:30:23;;;;;;;1.42;1.33;;;21.40;99.90;;;;;;5036412;28;20214;-53
2021/07/14 12:32:55;;;;;;;1.67;1.45;;;21.60;99.90;;;;;;5036451;28;20182;-58
2021/07/14 12:35:29;;;;;;;2.28;1.55;;;21.80;99.90;;;;;;5036265;28;20510;-63
2021/07/14 12:38:15;;;;;;;2.40;1.60;;;22.10;99.90;;;;;;5036712;28;20191;-61
2021/07/14 12:40:51;;;;;;;2.72;2.53;;;22.20;99.90;;;;;;5036630;28;20207;-57
2021/07/14 12:43:19;;;;;;;2.40;2.20;;;22.10;99.90;;;;;;5036540;28;20163;-60
2021/07/14 12:45:47;;;;;;;3.78;2.53;;;21.90;99.90;;;;;;5036723;28;20179;-58
2021/07/14 12:48:20;;;;;;;2.45;2.25;;;21.60;99.90;;;;;;5036231;28;20653;-59
2021/07/14 12:50:46;;;;;;;2.88;2.40;;;21.40;99.90;;;;;;5036217;28;20201;-61
2021/07/14 12:53:13;;;;;;;2.40;2.20;;;21.30;99.90;;;;;;5034635;28;20266;-59
2021/07/14 12:55:41;;;;;;;2.50;2.30;;;21.30;99.90;;;;;;5034808;28;20205;-55
2021/07/14 12:58:12;;;;;;;2.70;2.50;;;21.30;99.90;;;;;;5026269;28;20195;-63
2021/07/14 13:00:40;;;;;;;2.45;2.25;;;21.20;99.90;;;;;;5017442;28;20199;-62